Time;durP1;ratioP1;P1;durP2;ratioP2;P2;SDS_P1;SDS_P2;PMS_P1;PMS_P2;Temp;Humidity;BMP_temperature;BMP_pressure;BME280_temperature;BME280_humidity;BME280_pressure;Samples;Min_cycle;Max_cycle;Signal;HPM_P1;HPM_P2
2022/09/25 00:00:53;;;;;;;8.93;4.60;;;12.30;99.90;;;;;;5108420;28;20134;-47
2022/09/25 00:03:22;;;;;;;5.00;3.83;;;12.30;99.90;;;;;;5104626;28;20075;-52
2022/09/25 00:05:48;;;;;;;6.20;4.07;;;12.30;99.90;;;;;;5101817;28;20135;-47
2022/09/25 00:08:17;;;;;;;6.53;4.07;;;12.20;99.90;;;;;;5101071;28;20098;-48
2022/09/25 00:10:49;;;;;;;5.93;4.53;;;12.20;99.90;;;;;;5099545;28;20136;-48
2022/09/25 00:13:17;;;;;;;10.20;4.65;;;12.20;99.90;;;;;;5092438;28;20039;-51
2022/09/25 00:15:49;;;;;;;7.25;4.90;;;12.20;99.90;;;;;;5096035;28;20131;-47
2022/09/25 00:19:48;;;;;;;6.03;5.05;;;12.20;99.90;;;;;;5092904;28;20071;-49
2022/09/25 00:21:04;;;;;;;17.15;10.68;;;12.20;99.90;;;;;;5096587;28;20067;-50
2022/09/25 00:23:32;;;;;;;17.63;11.50;;;12.20;99.90;;;;;;5091920;28;20418;-48
2022/09/25 00:26:04;;;;;;;18.77;11.45;;;12.20;99.90;;;;;;5096749;28;20063;-50
2022/09/25 00:28:31;;;;;;;18.50;11.85;;;12.30;99.90;;;;;;5097084;28;20119;-49
2022/09/25 00:30:58;;;;;;;17.08;8.95;;;12.20;99.90;;;;;;5101613;28;20040;-49
2022/09/25 00:33:25;;;;;;;;;;;12.20;99.90;;;;;;5096562;28;20097;-49
2022/09/25 00:35:52;;;;;;;11.52;6.95;;;12.20;99.90;;;;;;5092863;28;20015;-51
2022/09/25 00:38:18;;;;;;;10.80;6.97;;;12.20;99.90;;;;;;5098273;28;20054;-49
2022/09/25 00:40:45;;;;;;;12.40;7.03;;;12.20;99.90;;;;;;5093114;28;20131;-50
2022/09/25 00:43:36;;;;;;;9.93;6.72;;;12.20;99.90;;;;;;5092621;28;20385;-47
2022/09/25 00:46:10;;;;;;;16.27;10.40;;;12.20;99.90;;;;;;5099586;28;20082;-49
2022/09/25 00:48:42;;;;;;;21.98;12.25;;;12.20;99.90;;;;;;5098437;28;20449;-48
2022/09/25 00:51:09;;;;;;;17.10;11.73;;;12.20;99.90;;;;;;5098731;28;20123;-48
2022/09/25 00:53:39;;;;;;;20.88;12.32;;;12.20;99.90;;;;;;5092784;28;20127;-48
2022/09/25 00:56:10;;;;;;;21.85;11.63;;;12.20;99.90;;;;;;5100184;28;20040;-52
2022/09/25 00:58:38;;;;;;;16.00;11.48;;;12.20;99.90;;;;;;5093307;28;20044;-49
2022/09/25 01:01:06;;;;;;;15.57;11.40;;;12.20;99.90;;;;;;5092802;28;20090;-50
2022/09/25 01:03:34;;;;;;;16.08;10.68;;;12.30;99.90;;;;;;5092760;28;20480;-49
2022/09/25 01:06:02;;;;;;;20.33;11.30;;;12.30;99.90;;;;;;5082113;28;20159;-48
2022/09/25 01:08:29;;;;;;;18.65;11.57;;;12.30;99.90;;;;;;5094699;28;20046;-49
2022/09/25 01:10:56;;;;;;;14.52;9.80;;;12.30;99.90;;;;;;5103171;28;20044;-48
2022/09/25 01:13:24;;;;;;;14.85;10.40;;;12.30;99.90;;;;;;5104092;28;20412;-48
2022/09/25 01:15:56;;;;;;;12.73;9.40;;;12.30;99.90;;;;;;5110264;22;20104;-48
2022/09/25 01:18:29;;;;;;;17.70;10.18;;;12.30;99.90;;;;;;5059891;28;20055;-48
2022/09/25 01:21:21;;;;;;;14.82;10.38;;;12.30;99.90;;;;;;5083241;28;20083;-49
2022/09/25 01:24:17;;;;;;;14.32;10.60;;;12.30;99.90;;;;;;5055500;28;20134;-49
2022/09/25 01:27:00;;;;;;;14.63;10.57;;;12.30;99.90;;;;;;5061568;28;20159;-50
2022/09/25 01:29:35;;;;;;;15.63;10.07;;;12.30;99.90;;;;;;5050888;28;20123;-48
2022/09/25 01:32:09;;;;;;;18.20;10.70;;;12.30;99.90;;;;;;5043911;28;20140;-48
2022/09/25 01:34:54;;;;;;;16.45;10.98;;;12.30;99.90;;;;;;5031581;28;20046;-49
2022/09/25 01:37:36;;;;;;;17.77;10.32;;;12.30;99.90;;;;;;5033086;28;20124;-50
2022/09/25 01:40:16;;;;;;;18.75;11.68;;;12.30;99.90;;;;;;5045057;28;20037;-49
2022/09/25 01:42:50;;;;;;;17.73;11.75;;;12.20;99.90;;;;;;5052217;28;20071;-50
2022/09/25 01:45:28;;;;;;;16.55;10.90;;;12.30;99.90;;;;;;5051677;28;20183;-48
2022/09/25 01:47:56;;;;;;;15.00;10.65;;;12.20;99.90;;;;;;5030715;28;20076;-49
2022/09/25 01:50:33;;;;;;;16.60;11.43;;;12.20;99.90;;;;;;5052056;28;20068;-47
2022/09/25 01:53:06;;;;;;;12.98;8.88;;;12.20;99.90;;;;;;5052061;28;20073;-47
2022/09/25 01:55:40;;;;;;;17.05;11.57;;;12.30;99.90;;;;;;5046683;28;20371;-48
2022/09/25 01:58:28;;;;;;;13.80;9.13;;;12.20;99.90;;;;;;5048505;28;20076;-49
2022/09/25 02:01:09;;;;;;;17.60;9.68;;;12.20;99.90;;;;;;5051476;28;20075;-49
2022/09/25 02:03:59;;;;;;;13.48;8.30;;;12.20;99.90;;;;;;5051280;28;20514;-46
2022/09/25 02:06:27;;;;;;;8.65;6.20;;;12.20;99.90;;;;;;5036567;28;20049;-46
2022/09/25 02:09:03;;;;;;;9.73;5.15;;;12.10;99.90;;;;;;5051559;28;20047;-49
2022/09/25 02:11:36;;;;;;;8.52;5.78;;;12.10;99.90;;;;;;5051701;28;20119;-49
2022/09/25 02:14:24;;;;;;;9.32;6.82;;;12.00;99.90;;;;;;5039849;28;20072;-50
2022/09/25 02:16:54;;;;;;;12.63;7.20;;;11.90;99.90;;;;;;5038177;28;20167;-49
2022/09/25 02:22:23;;;;;;;11.23;5.70;;;12.00;99.90;;;;;;5051781;28;20065;-48
2022/09/25 02:24:55;;;;;;;6.13;3.80;;;11.90;99.90;;;;;;5041038;28;20045;-50
2022/09/25 02:27:26;;;;;;;7.05;3.90;;;11.90;99.90;;;;;;5035490;28;20037;-48
2022/09/25 02:29:55;;;;;;;4.85;3.55;;;11.90;99.90;;;;;;5043392;28;20069;-48
2022/09/25 02:32:27;;;;;;;6.18;4.30;;;11.90;99.90;;;;;;5051088;28;20137;-52
2022/09/25 02:34:56;;;;;;;6.15;4.88;;;11.80;99.90;;;;;;5050888;28;20075;-48
2022/09/25 02:37:23;;;;;;;6.43;5.03;;;11.90;99.90;;;;;;5035369;28;20460;-49
2022/09/25 02:39:53;;;;;;;9.10;6.35;;;11.90;99.90;;;;;;5036973;28;20116;-49
2022/09/25 02:42:37;;;;;;;11.00;6.10;;;11.90;99.90;;;;;;5050112;28;20464;-49
2022/09/25 02:45:22;;;;;;;10.15;6.97;;;11.90;99.90;;;;;;5038324;28;20069;-46
2022/09/25 02:47:49;;;;;;;11.02;6.75;;;11.90;99.90;;;;;;5049951;28;20163;-49
2022/09/25 02:50:27;;;;;;;8.18;5.95;;;11.90;99.90;;;;;;5050087;28;20121;-49
2022/09/25 02:53:02;;;;;;;;;;;11.90;99.90;;;;;;5050114;28;20095;-48
2022/09/25 02:55:44;;;;;;;8.77;6.32;;;12.00;99.90;;;;;;5050561;28;20012;-49
2022/09/25 02:58:32;;;;;;;9.98;6.43;;;12.00;99.90;;;;;;5050011;28;20076;-49
2022/09/25 03:01:00;;;;;;;;;;;12.00;99.90;;;;;;5045764;28;20052;-49
2022/09/25 03:03:27;;;;;;;8.60;6.32;;;12.00;99.90;;;;;;5050038;28;19925;-49
2022/09/25 03:05:56;;;;;;;12.98;8.50;;;12.00;99.90;;;;;;5050761;28;20493;-49
2022/09/25 03:08:38;;;;;;;15.05;8.23;;;12.00;99.90;;;;;;5030572;28;20053;-49
2022/09/25 03:11:12;;;;;;;12.50;8.70;;;12.00;99.90;;;;;;5051174;28;20044;-51
2022/09/25 03:13:40;;;;;;;14.60;10.02;;;12.10;99.90;;;;;;5050318;28;20112;-49
2022/09/25 03:16:24;;;;;;;16.33;10.20;;;12.10;99.90;;;;;;5036069;28;20534;-50
2022/09/25 03:18:50;;;;;;;11.32;8.05;;;12.10;99.90;;;;;;5050600;28;20048;-49
2022/09/25 03:21:17;;;;;;;8.90;7.28;;;12.10;99.90;;;;;;5050769;28;20143;-49
2022/09/25 03:23:44;;;;;;;10.80;6.38;;;12.10;99.90;;;;;;5049027;28;20085;-49
2022/09/25 03:26:10;;;;;;;9.02;5.78;;;12.00;99.90;;;;;;5042469;28;20404;-46
2022/09/25 03:28:37;;;;;;;8.85;6.65;;;12.00;99.90;;;;;;5050619;28;20044;-48
2022/09/25 03:31:06;;;;;;;10.55;6.18;;;12.00;99.90;;;;;;5050881;28;20129;-49
2022/09/25 03:33:39;;;;;;;6.53;5.10;;;12.00;99.90;;;;;;5039963;28;20099;-49
2022/09/25 03:36:17;;;;;;;13.65;6.95;;;12.00;99.90;;;;;;5047432;28;20088;-48
2022/09/25 03:38:47;;;;;;;8.98;5.72;;;11.90;99.90;;;;;;5040155;28;20107;-50
2022/09/25 03:41:18;;;;;;;10.07;5.85;;;11.90;99.90;;;;;;5048184;28;20133;-48
2022/09/25 03:43:47;;;;;;;6.78;4.93;;;11.90;99.90;;;;;;5048571;28;20103;-49
2022/09/25 03:46:14;;;;;;;6.05;4.18;;;11.80;99.90;;;;;;5050905;28;20075;-48
2022/09/25 03:48:41;;;;;;;7.22;4.72;;;11.80;99.90;;;;;;5044528;28;20068;-49
2022/09/25 03:51:09;;;;;;;8.45;4.60;;;11.80;99.90;;;;;;5050656;28;20116;-49
2022/09/25 03:53:36;;;;;;;6.57;5.22;;;11.80;99.90;;;;;;5050176;28;20116;-49
2022/09/25 03:56:06;;;;;;;6.03;4.35;;;11.70;99.90;;;;;;5046084;28;20073;-49
2022/09/25 03:58:34;;;;;;;7.03;4.75;;;11.70;99.90;;;;;;5042710;28;20061;-48
2022/09/25 04:01:00;;;;;;;4.93;4.18;;;11.70;99.90;;;;;;5034992;28;20045;-48
2022/09/25 04:03:29;;;;;;;8.45;4.75;;;11.70;99.90;;;;;;5054453;28;20413;-49
2022/09/25 04:05:59;;;;;;;7.25;5.22;;;11.50;99.90;;;;;;5047082;28;20045;-48
2022/09/25 04:08:27;;;;;;;7.82;4.53;;;11.50;99.90;;;;;;5037125;28;20460;-48
2022/09/25 04:10:55;;;;;;;6.90;5.10;;;11.50;99.90;;;;;;5053654;28;20120;-48
2022/09/25 04:13:22;;;;;;;8.73;5.60;;;11.50;99.90;;;;;;5048161;28;20115;-48
2022/09/25 04:15:50;;;;;;;7.15;5.30;;;11.60;99.90;;;;;;5053126;28;20552;-49
2022/09/25 04:18:18;;;;;;;6.55;4.90;;;11.60;99.90;;;;;;5071760;28;20078;-50
2022/09/25 04:20:44;;;;;;;;;;;11.50;99.90;;;;;;5068195;28;20157;-46
2022/09/25 04:23:11;;;;;;;8.52;4.43;;;11.60;99.90;;;;;;5042671;28;20452;-46
2022/09/25 04:25:38;;;;;;;6.75;4.43;;;11.60;99.90;;;;;;5052972;28;20525;-50
2022/09/25 04:28:06;;;;;;;6.88;4.90;;;11.60;99.90;;;;;;5053844;28;20076;-50
2022/09/25 04:30:33;;;;;;;7.45;5.32;;;11.60;99.90;;;;;;5047031;28;20041;-49
2022/09/25 04:35:46;;;;;;;7.60;5.50;;;11.60;99.90;;;;;;5052649;28;20124;-49
2022/09/25 04:38:12;;;;;;;7.57;6.03;;;11.60;99.90;;;;;;5053786;28;20080;-49
2022/09/25 04:40:39;;;;;;;9.10;6.23;;;11.60;99.90;;;;;;5043739;28;20045;-48
2022/09/25 04:43:06;;;;;;;12.25;6.18;;;11.60;99.90;;;;;;5053489;28;20375;-48
2022/09/25 04:45:36;;;;;;;8.98;6.30;;;11.60;99.90;;;;;;5051749;28;20128;-50
2022/09/25 04:48:03;;;;;;;8.60;6.25;;;11.60;99.90;;;;;;5045026;28;20124;-48
2022/09/25 04:50:30;;;;;;;9.65;6.22;;;11.60;99.90;;;;;;5034759;28;20100;-49
2022/09/25 04:53:01;;;;;;;7.70;5.50;;;11.60;99.90;;;;;;5053459;28;20044;-49
2022/09/25 04:55:27;;;;;;;6.80;4.95;;;11.60;99.90;;;;;;5048893;28;20037;-47
2022/09/25 04:57:59;;;;;;;7.93;5.63;;;11.60;99.90;;;;;;5063200;28;20075;-49
2022/09/25 05:00:29;;;;;;;8.45;6.15;;;11.60;99.90;;;;;;5068557;28;20076;-49
2022/09/25 05:02:55;;;;;;;8.38;5.15;;;11.60;99.90;;;;;;5039752;28;20055;-46
2022/09/25 05:05:26;;;;;;;6.38;4.60;;;11.60;99.90;;;;;;5051257;28;20056;-50
2022/09/25 05:07:58;;;;;;;7.72;5.03;;;11.60;99.90;;;;;;5039348;28;20037;-49
2022/09/25 05:10:27;;;;;;;6.65;5.20;;;11.60;99.90;;;;;;5052271;28;20044;-49
2022/09/25 05:12:55;;;;;;;7.47;5.53;;;11.60;99.90;;;;;;5052175;28;20532;-49
2022/09/25 05:15:22;;;;;;;10.27;7.28;;;11.60;99.90;;;;;;5040248;28;20069;-47
2022/09/25 05:17:49;;;;;;;17.63;11.00;;;11.60;99.90;;;;;;5052717;28;20149;-49
2022/09/25 05:20:16;;;;;;;17.50;11.35;;;11.60;99.90;;;;;;5037976;28;20080;-48
2022/09/25 05:22:43;;;;;;;22.23;13.98;;;11.60;99.90;;;;;;5036717;28;20045;-48
2022/09/25 05:25:09;;;;;;;23.55;13.90;;;11.60;99.90;;;;;;5049754;28;20068;-49
2022/09/25 05:27:36;;;;;;;18.08;11.32;;;11.70;99.90;;;;;;5022186;28;20076;-48
2022/09/25 05:30:03;;;;;;;13.88;8.73;;;11.70;99.90;;;;;;5037730;28;20119;-48
2022/09/25 05:32:30;;;;;;;16.52;10.73;;;11.70;99.90;;;;;;5044351;28;20061;-50
2022/09/25 05:34:56;;;;;;;9.05;6.43;;;11.60;99.90;;;;;;5052127;28;20072;-49
2022/09/25 05:37:23;;;;;;;7.93;5.90;;;11.60;99.90;;;;;;5052045;28;20064;-48
2022/09/25 05:39:51;;;;;;;9.70;6.28;;;11.60;99.90;;;;;;5049286;28;20076;-48
2022/09/25 05:42:18;;;;;;;11.57;6.07;;;11.60;99.90;;;;;;5043951;28;20068;-48
2022/09/25 05:44:45;;;;;;;7.57;5.60;;;11.70;99.90;;;;;;5051087;28;20128;-48
2022/09/25 05:47:11;;;;;;;10.93;5.70;;;11.70;99.90;;;;;;5051587;28;20056;-48
2022/09/25 05:49:38;;;;;;;8.50;6.25;;;11.70;99.90;;;;;;5039423;28;20116;-49
2022/09/25 05:52:05;;;;;;;10.25;6.03;;;11.60;99.90;;;;;;5048476;28;20545;-47
2022/09/25 05:54:32;;;;;;;8.15;5.88;;;11.70;99.90;;;;;;5051560;28;20465;-48
2022/09/25 05:56:58;;;;;;;8.52;5.97;;;11.70;99.90;;;;;;5052030;28;20063;-49
2022/09/25 05:59:25;;;;;;;7.13;5.18;;;11.70;99.90;;;;;;5035215;28;20549;-47
2022/09/25 06:01:52;;;;;;;6.80;5.65;;;11.70;99.90;;;;;;5051699;28;20072;-49
2022/09/25 06:04:19;;;;;;;8.55;5.70;;;11.70;99.90;;;;;;5051451;28;20059;-48
2022/09/25 06:06:45;;;;;;;7.57;5.28;;;11.70;99.90;;;;;;5037619;28;20071;-47
2022/09/25 06:09:12;;;;;;;8.13;5.45;;;11.80;99.90;;;;;;5051335;28;20037;-48
2022/09/25 06:11:40;;;;;;;10.73;5.68;;;11.90;99.90;;;;;;5042107;28;20466;-48
2022/09/25 06:14:06;;;;;;;10.48;7.18;;;11.90;99.90;;;;;;5049269;28;20116;-49
2022/09/25 06:16:33;;;;;;;15.13;8.05;;;12.00;99.90;;;;;;5046750;28;20441;-48
2022/09/25 06:19:00;;;;;;;12.50;8.38;;;12.00;99.90;;;;;;5070941;28;20064;-48
2022/09/25 06:21:27;;;;;;;10.77;7.10;;;12.10;99.90;;;;;;5056293;28;20558;-48
2022/09/25 06:23:54;;;;;;;9.18;5.85;;;12.20;99.90;;;;;;5050975;28;20128;-48
2022/09/25 06:26:22;;;;;;;26.10;12.68;;;12.30;99.90;;;;;;5050763;28;20072;-48
2022/09/25 06:28:48;;;;;;;21.75;10.68;;;12.40;99.90;;;;;;5047198;28;20133;-48
2022/09/25 06:31:15;;;;;;;26.80;11.93;;;12.50;99.90;;;;;;5032820;28;20068;-49
2022/09/25 06:33:42;;;;;;;18.67;11.38;;;12.50;99.90;;;;;;5050260;28;20049;-48
2022/09/25 06:36:09;;;;;;;17.48;12.05;;;12.60;99.90;;;;;;5051426;28;20079;-49
2022/09/25 06:38:36;;;;;;;23.27;13.93;;;12.60;99.90;;;;;;5040318;28;20076;-47
2022/09/25 06:41:02;;;;;;;21.05;12.32;;;12.60;99.90;;;;;;5028187;28;20068;-48
2022/09/25 06:43:30;;;;;;;38.85;20.55;;;12.60;99.90;;;;;;5050587;28;20107;-48
2022/09/25 06:46:01;;;;;;;27.67;16.20;;;12.60;99.90;;;;;;5050703;28;20457;-48
2022/09/25 06:48:29;;;;;;;26.48;15.43;;;12.60;99.90;;;;;;5050955;28;20036;-47
2022/09/25 06:50:58;;;;;;;15.38;9.70;;;12.70;99.90;;;;;;5044785;28;20141;-49
2022/09/25 06:53:25;;;;;;;13.00;8.23;;;12.70;99.90;;;;;;5048681;28;20068;-49
2022/09/25 06:55:56;;;;;;;12.43;9.32;;;12.80;99.90;;;;;;5049163;28;20604;-47
2022/09/25 06:58:25;;;;;;;15.30;9.82;;;12.80;99.90;;;;;;5026247;28;20041;-48
2022/09/25 07:00:54;;;;;;;24.38;14.45;;;12.80;99.90;;;;;;5032909;28;20083;-50
2022/09/25 07:06:09;;;;;;;30.77;17.38;;;12.80;99.90;;;;;;5041053;28;20076;-48
2022/09/25 07:08:37;;;;;;;31.63;19.08;;;12.80;99.90;;;;;;5051156;28;20124;-47
2022/09/25 07:11:04;;;;;;;;;;;12.90;99.90;;;;;;5051238;28;20040;-48
2022/09/25 07:13:33;;;;;;;19.08;12.65;;;12.90;99.90;;;;;;5039257;28;19959;-48
2022/09/25 07:16:33;;;;;;;20.45;11.55;;;13.00;99.90;;;;;;5051200;28;20075;-45
2022/09/25 07:19:01;;;;;;;14.27;10.23;;;13.10;99.90;;;;;;5040081;28;20513;-47
2022/09/25 07:21:30;;;;;;;18.15;11.73;;;13.20;99.90;;;;;;5049034;28;20560;-50
2022/09/25 07:23:57;;;;;;;18.42;11.30;;;13.40;99.90;;;;;;5050463;28;20048;-47
2022/09/25 07:26:27;;;;;;;17.10;11.02;;;13.70;99.90;;;;;;5054129;28;20048;-47
2022/09/25 07:28:55;;;;;;;14.48;10.05;;;13.90;99.90;;;;;;5070159;28;20072;-47
2022/09/25 07:31:24;;;;;;;15.57;9.57;;;14.10;99.90;;;;;;5068364;28;20044;-47
2022/09/25 07:33:52;;;;;;;16.58;11.27;;;14.20;99.90;;;;;;5082126;28;20048;-47
2022/09/25 07:36:19;;;;;;;14.40;9.88;;;14.30;99.90;;;;;;5093743;28;20040;-48
2022/09/25 07:38:50;;;;;;;14.95;9.55;;;14.40;99.90;;;;;;5091490;28;20123;-49
2022/09/25 07:41:18;;;;;;;14.27;9.95;;;14.40;99.90;;;;;;5092560;28;20081;-50
2022/09/25 07:43:45;;;;;;;13.90;9.57;;;14.50;99.90;;;;;;5094208;28;20071;-48
2022/09/25 07:46:12;;;;;;;14.70;9.95;;;14.60;99.90;;;;;;5077715;28;20064;-47
2022/09/25 07:48:39;;;;;;;12.90;9.63;;;14.70;99.90;;;;;;5074007;28;20614;-48
2022/09/25 07:51:09;;;;;;;14.13;9.80;;;14.70;99.90;;;;;;5074633;28;20476;-47
2022/09/25 07:53:37;;;;;;;19.02;11.50;;;14.80;99.90;;;;;;5072432;28;20094;-47
2022/09/25 07:56:04;;;;;;;23.02;13.18;;;14.90;99.90;;;;;;5085275;28;20448;-48
2022/09/25 07:58:36;;;;;;;14.80;9.68;;;15.00;99.90;;;;;;5094577;28;20090;-48
2022/09/25 08:01:06;;;;;;;11.00;8.40;;;15.10;99.90;;;;;;5085601;28;20141;-47
2022/09/25 08:03:33;;;;;;;18.45;11.00;;;15.10;99.90;;;;;;5064951;28;20084;-49
2022/09/25 08:06:05;;;;;;;18.20;10.50;;;15.10;99.90;;;;;;5075082;28;20391;-47
2022/09/25 08:08:41;;;;;;;15.30;9.52;;;15.00;99.90;;;;;;5071286;28;20087;-52
2022/09/25 08:11:33;;;;;;;13.98;9.52;;;14.90;99.90;;;;;;5066049;28;20036;-49
2022/09/25 08:13:59;;;;;;;13.63;8.82;;;14.90;99.90;;;;;;5069609;28;20072;-47
2022/09/25 08:16:26;;;;;;;15.35;8.85;;;15.00;99.90;;;;;;5072357;28;20131;-47
2022/09/25 08:18:53;;;;;;;14.65;8.50;;;15.10;99.90;;;;;;5073425;28;20075;-47
2022/09/25 08:21:19;;;;;;;12.75;9.13;;;15.40;99.90;;;;;;5073950;28;20083;-48
2022/09/25 08:23:51;;;;;;;10.88;7.68;;;15.50;99.90;;;;;;5071147;28;20045;-47
2022/09/25 08:26:20;;;;;;;12.77;8.65;;;15.60;99.90;;;;;;5071810;28;20072;-48
2022/09/25 08:28:47;;;;;;;17.48;11.55;;;15.70;99.90;;;;;;5073593;28;20554;-47
2022/09/25 08:31:14;;;;;;;;;;;15.50;99.90;;;;;;5073926;28;20115;-48
2022/09/25 08:33:45;;;;;;;11.60;9.30;;;15.40;99.90;;;;;;5071925;28;19920;-48
2022/09/25 08:36:12;;;;;;;12.85;9.65;;;15.40;99.90;;;;;;5072206;28;20044;-51
2022/09/25 08:38:39;;;;;;;14.02;8.70;;;15.40;99.90;;;;;;5073357;28;20119;-48
2022/09/25 08:41:20;;;;;;;13.00;9.32;;;15.40;99.90;;;;;;5073661;28;20155;-48
2022/09/25 08:43:56;;;;;;;13.93;9.48;;;15.40;99.90;;;;;;5070413;28;20479;-48
2022/09/25 08:49:20;;;;;;;14.68;9.85;;;15.50;99.90;;;;;;5072572;28;20489;-48
2022/09/25 08:51:49;;;;;;;15.85;10.40;;;15.50;99.90;;;;;;5071081;28;20116;-47
2022/09/25 08:54:23;;;;;;;14.70;9.88;;;15.40;99.90;;;;;;5072446;28;20582;-51
2022/09/25 08:56:54;;;;;;;13.30;9.68;;;15.40;99.90;;;;;;5073118;28;20048;-48
2022/09/25 08:59:37;;;;;;;15.55;10.32;;;15.30;99.90;;;;;;5048360;28;20500;-48
2022/09/25 09:02:15;;;;;;;16.27;10.25;;;15.30;99.90;;;;;;5072729;28;20079;-50
2022/09/25 09:04:57;;;;;;;12.30;8.82;;;15.30;99.90;;;;;;5072588;28;20508;-48
2022/09/25 09:07:37;;;;;;;13.93;8.93;;;15.50;99.90;;;;;;5071706;28;20087;-48
2022/09/25 09:10:26;;;;;;;12.80;8.57;;;15.50;99.90;;;;;;5071367;28;20499;-47
2022/09/25 09:13:21;;;;;;;16.58;10.68;;;15.50;99.90;;;;;;5072633;28;20192;-48
2022/09/25 09:15:55;;;;;;;15.73;9.68;;;15.40;99.90;;;;;;5071104;28;20128;-48
2022/09/25 09:18:25;;;;;;;13.48;9.25;;;15.50;99.90;;;;;;5076965;28;20048;-48
2022/09/25 09:20:59;;;;;;;11.35;8.32;;;15.60;99.90;;;;;;5075404;28;20067;-48
2022/09/25 09:23:34;;;;;;;14.07;9.02;;;15.90;99.90;;;;;;5081270;28;20122;-48
2022/09/25 09:26:11;;;;;;;11.13;9.00;;;16.30;99.90;;;;;;5077459;28;20127;-47
2022/09/25 09:29:03;;;;;;;11.35;8.10;;;16.70;99.90;;;;;;5076476;28;20466;-48
2022/09/25 09:31:50;;;;;;;13.02;7.70;;;17.00;99.90;;;;;;5082336;28;20508;-50
2022/09/25 09:34:38;;;;;;;14.13;8.88;;;17.30;99.90;;;;;;5080713;28;20119;-49
2022/09/25 09:37:49;;;;;;;9.93;7.45;;;17.40;99.90;;;;;;5077049;28;20481;-49
2022/09/25 09:40:32;;;;;;;10.55;7.55;;;17.50;99.90;;;;;;5081155;28;20061;-48
2022/09/25 09:43:20;;;;;;;11.23;7.53;;;17.70;99.90;;;;;;5078534;28;20563;-49
2022/09/25 09:46:03;;;;;;;11.30;7.93;;;17.60;99.90;;;;;;5076999;28;20461;-50
2022/09/25 09:48:35;;;;;;;9.43;7.63;;;17.20;99.90;;;;;;5078940;28;20046;-48
2022/09/25 09:51:12;;;;;;;9.88;7.38;;;17.00;99.90;;;;;;5078187;28;20135;-49
2022/09/25 09:53:47;;;;;;;10.82;7.70;;;16.70;99.90;;;;;;5080095;28;20068;-48
2022/09/25 09:56:19;;;;;;;13.50;8.15;;;16.40;99.90;;;;;;5079823;28;20496;-48
2022/09/25 09:58:55;;;;;;;9.15;7.50;;;16.20;99.90;;;;;;5075374;28;20115;-48
2022/09/25 10:01:27;;;;;;;11.30;7.75;;;16.10;99.90;;;;;;5077547;28;20595;-50
2022/09/25 10:04:13;;;;;;;12.25;9.38;;;15.80;99.90;;;;;;5080252;28;20048;-48
2022/09/25 10:06:52;;;;;;;10.30;7.63;;;15.70;99.90;;;;;;5076060;28;20512;-49
2022/09/25 10:09:19;;;;;;;9.38;6.97;;;15.70;99.90;;;;;;5076622;28;20052;-48
2022/09/25 10:11:51;;;;;;;13.73;8.27;;;15.70;99.90;;;;;;5082529;28;20071;-48
2022/09/25 10:14:21;;;;;;;9.75;7.05;;;15.70;99.90;;;;;;5073658;28;20119;-48
2022/09/25 10:16:52;;;;;;;10.40;7.78;;;15.80;99.90;;;;;;5073796;28;20040;-48
2022/09/25 10:19:25;;;;;;;13.35;8.20;;;15.90;99.90;;;;;;5071017;28;20072;-48
2022/09/25 10:22:02;;;;;;;10.02;7.18;;;15.80;99.90;;;;;;5070580;28;20091;-48
2022/09/25 10:24:50;;;;;;;10.38;6.70;;;15.80;99.90;;;;;;5062759;28;20075;-51
2022/09/25 10:27:21;;;;;;;12.77;7.05;;;15.70;99.90;;;;;;5070754;28;20454;-48
2022/09/25 10:30:00;;;;;;;8.68;7.00;;;15.70;99.90;;;;;;5068992;28;20076;-48
2022/09/25 10:32:29;;;;;;;13.65;8.50;;;15.60;99.90;;;;;;5070107;28;20076;-47
2022/09/25 10:34:55;;;;;;;10.63;7.10;;;15.60;99.90;;;;;;5078970;28;20778;-48
2022/09/25 10:37:33;;;;;;;12.65;8.55;;;15.60;99.90;;;;;;5068909;28;20036;-52
2022/09/25 10:40:05;;;;;;;9.07;7.15;;;15.60;99.90;;;;;;5058122;28;20037;-50
2022/09/25 10:42:38;;;;;;;11.82;8.38;;;15.50;99.90;;;;;;5062620;28;20068;-49
2022/09/25 10:45:35;;;;;;;13.30;8.40;;;15.50;99.90;;;;;;5068531;28;20053;-52
2022/09/25 10:51:17;;;;;;;11.23;8.82;;;15.60;99.90;;;;;;5068191;28;20485;-52
2022/09/25 10:53:45;;;;;;;13.27;9.57;;;15.60;99.90;;;;;;5069216;28;20057;-48
2022/09/25 10:56:21;;;;;;;13.50;9.20;;;15.80;99.90;;;;;;5069543;28;20128;-52
2022/09/25 10:58:55;;;;;;;11.05;8.15;;;15.90;99.90;;;;;;5074277;28;20040;-48
2022/09/25 11:01:34;;;;;;;12.00;8.05;;;16.00;99.90;;;;;;5078290;28;20048;-48
2022/09/25 11:04:11;;;;;;;10.10;7.63;;;16.20;99.90;;;;;;5078171;28;20463;-48
2022/09/25 11:06:47;;;;;;;9.88;6.72;;;16.30;99.90;;;;;;5078292;28;20125;-49
2022/09/25 11:09:20;;;;;;;13.02;7.20;;;16.40;99.90;;;;;;5072181;28;20037;-49
2022/09/25 11:11:49;;;;;;;14.07;6.32;;;16.50;99.90;;;;;;5079936;28;20169;-48
2022/09/25 11:14:31;;;;;;;8.73;6.90;;;16.50;99.90;;;;;;5084625;28;20120;-47
2022/09/25 11:17:00;;;;;;;8.23;5.45;;;16.50;99.90;;;;;;5063109;28;20428;-48
2022/09/25 11:19:28;;;;;;;8.90;6.07;;;16.50;99.90;;;;;;5080219;28;20556;-49
2022/09/25 11:22:19;;;;;;;7.15;5.65;;;16.50;99.90;;;;;;5085058;28;20071;-51
2022/09/25 11:25:03;;;;;;;8.07;6.05;;;16.60;99.90;;;;;;5085391;28;20072;-48
2022/09/25 11:27:41;;;;;;;10.32;6.45;;;16.80;99.90;;;;;;5080686;28;20119;-48
2022/09/25 11:30:21;;;;;;;7.78;6.13;;;16.80;99.90;;;;;;5077685;28;20488;-51
2022/09/25 11:33:03;;;;;;;12.27;6.60;;;16.70;99.90;;;;;;5083881;28;20515;-48
2022/09/25 11:35:47;;;;;;;7.32;5.65;;;16.70;99.90;;;;;;5072385;28;20053;-50
2022/09/25 11:41:44;;;;;;;7.47;6.03;;;16.70;99.90;;;;;;5073013;28;20132;-49
2022/09/25 11:44:31;;;;;;;9.30;6.30;;;16.80;99.90;;;;;;5073386;28;20041;-48
2022/09/25 11:47:11;;;;;;;7.82;5.80;;;16.70;99.90;;;;;;5074323;28;20489;-49
2022/09/25 11:49:39;;;;;;;7.38;5.95;;;16.60;99.90;;;;;;5073214;28;20072;-48
2022/09/25 11:52:43;;;;;;;7.55;6.25;;;16.50;99.90;;;;;;5074539;28;20037;-48
2022/09/25 11:55:45;;;;;;;10.35;6.88;;;16.50;99.90;;;;;;5072737;28;20044;-49
2022/09/25 11:58:25;;;;;;;9.45;6.95;;;16.30;99.90;;;;;;5074269;28;20045;-48
2022/09/25 12:01:10;;;;;;;10.25;6.60;;;16.30;99.90;;;;;;5074279;28;20115;-49
2022/09/25 12:03:55;;;;;;;6.80;5.65;;;16.50;99.90;;;;;;5072502;28;20032;-49
2022/09/25 12:06:47;;;;;;;8.45;6.45;;;16.60;99.90;;;;;;5071801;28;20063;-49
2022/09/25 12:09:35;;;;;;;8.82;6.13;;;16.60;99.90;;;;;;5045280;28;20110;-47
2022/09/25 12:12:12;;;;;;;6.68;5.38;;;16.60;99.90;;;;;;5053407;28;20059;-48
2022/09/25 12:14:49;;;;;;;7.07;5.70;;;16.70;99.90;;;;;;5062379;28;20068;-51
2022/09/25 12:17:34;;;;;;;7.13;4.63;;;16.70;99.90;;;;;;5072673;28;20067;-48
2022/09/25 12:20:22;;;;;;;8.77;6.15;;;16.70;99.90;;;;;;5073271;28;20453;-48
2022/09/25 12:23:13;;;;;;;8.63;5.50;;;16.70;99.90;;;;;;5071275;28;20439;-47
2022/09/25 12:26:17;;;;;;;7.25;5.80;;;16.60;99.90;;;;;;5071476;28;20040;-48
2022/09/25 12:29:12;;;;;;;11.43;6.47;;;16.60;99.90;;;;;;5072350;28;20087;-47
2022/09/25 12:31:59;;;;;;;7.85;5.40;;;16.60;99.90;;;;;;5071936;28;20060;-46
2022/09/25 12:34:48;;;;;;;12.43;6.18;;;16.60;99.90;;;;;;5072947;28;20443;-47
2022/09/25 12:37:24;;;;;;;9.10;6.18;;;16.50;99.90;;;;;;5072525;28;20143;-49
2022/09/25 12:40:00;;;;;;;7.63;6.53;;;16.50;99.90;;;;;;5071728;28;20063;-50
2022/09/25 12:42:40;;;;;;;8.27;6.15;;;16.40;99.90;;;;;;5072217;28;20114;-50
2022/09/25 12:45:28;;;;;;;7.50;5.82;;;16.40;99.90;;;;;;5071751;28;20075;-48
2022/09/25 12:48:16;;;;;;;8.27;5.95;;;16.30;99.90;;;;;;5071063;28;20052;-47
2022/09/25 12:50:55;;;;;;;9.88;5.90;;;16.20;99.90;;;;;;5071029;28;20064;-48
2022/09/25 12:53:44;;;;;;;7.25;5.50;;;16.30;99.90;;;;;;5072160;28;20472;-49
2022/09/25 12:56:23;;;;;;;8.82;5.82;;;16.30;99.90;;;;;;5072251;28;20079;-48
2022/09/25 12:58:52;;;;;;;7.70;5.65;;;16.30;99.90;;;;;;5070828;28;20090;-47
2022/09/25 13:01:35;;;;;;;8.40;5.35;;;16.50;99.90;;;;;;5072323;28;20457;-47
2022/09/25 13:04:38;;;;;;;6.68;4.93;;;16.60;99.90;;;;;;5072124;28;20044;-49
2022/09/25 13:07:37;;;;;;;7.55;5.20;;;16.70;99.90;;;;;;5069434;28;20105;-48
2022/09/25 13:10:26;;;;;;;6.03;4.85;;;16.80;99.90;;;;;;5068513;28;20127;-48
2022/09/25 13:12:55;;;;;;;6.40;4.82;;;16.90;99.90;;;;;;5053371;28;20480;-48
2022/09/25 13:15:31;;;;;;;6.28;5.00;;;16.80;99.90;;;;;;5071044;28;20403;-48
2022/09/25 13:17:58;;;;;;;5.55;3.97;;;16.80;99.90;;;;;;5071906;28;20115;-53
2022/09/25 13:20:25;;;;;;;5.97;5.00;;;16.90;99.90;;;;;;5099485;22;20055;-49
2022/09/25 13:22:56;;;;;;;7.55;4.95;;;16.80;99.90;;;;;;5090323;28;20514;-49
2022/09/25 13:25:24;;;;;;;9.93;5.68;;;16.70;99.90;;;;;;5089770;28;20130;-51
2022/09/25 13:27:53;;;;;;;8.93;5.80;;;16.60;99.90;;;;;;5079249;28;20051;-49
2022/09/25 13:30:22;;;;;;;8.25;4.70;;;16.50;99.90;;;;;;5105931;27;20065;-50